sensor_id;sensor_type;location;lat;lon;timestamp;P1;durP1;ratioP1;P2;durP2;ratioP2
6420;SDS011;3243;50.958;7.012;2022-08-11T00:01:27;5.90;;;3.20;;
6420;SDS011;3243;50.958;7.012;2022-08-11T00:04:01;3.63;;;3.20;;
6420;SDS011;3243;50.958;7.012;2022-08-11T00:06:34;4.03;;;3.00;;
6420;SDS011;3243;50.958;7.012;2022-08-11T00:09:04;3.90;;;3.10;;
6420;SDS011;3243;50.958;7.012;2022-08-11T00:14:03;4.50;;;3.33;;
6420;SDS011;3243;50.958;7.012;2022-08-11T00:16:39;3.95;;;3.30;;
6420;SDS011;3243;50.958;7.012;2022-08-11T00:19:07;5.05;;;3.97;;
6420;SDS011;3243;50.958;7.012;2022-08-11T00:21:39;4.45;;;3.55;;
6420;SDS011;3243;50.958;7.012;2022-08-11T00:24:32;5.55;;;3.67;;
6420;SDS011;3243;50.958;7.012;2022-08-11T00:27:17;4.05;;;3.58;;
6420;SDS011;3243;50.958;7.012;2022-08-11T00:29:51;5.30;;;3.58;;
6420;SDS011;3243;50.958;7.012;2022-08-11T00:32:19;5.32;;;3.63;;
6420;SDS011;3243;50.958;7.012;2022-08-11T00:34:46;4.95;;;3.38;;
6420;SDS011;3243;50.958;7.012;2022-08-11T00:37:20;5.68;;;3.42;;
6420;SDS011;3243;50.958;7.012;2022-08-11T00:39:49;5.47;;;3.60;;
6420;SDS011;3243;50.958;7.012;2022-08-11T00:45:34;3.78;;;3.38;;
6420;SDS011;3243;50.958;7.012;2022-08-11T00:53:04;8.52;;;3.58;;
6420;SDS011;3243;50.958;7.012;2022-08-11T01:04:39;5.30;;;4.00;;
6420;SDS011;3243;50.958;7.012;2022-08-11T01:10:45;5.30;;;3.50;;
6420;SDS011;3243;50.958;7.012;2022-08-11T01:18:52;5.65;;;3.80;;
6420;SDS011;3243;50.958;7.012;2022-08-11T01:40:54;6.40;;;3.95;;
6420;SDS011;3243;50.958;7.012;2022-08-11T01:47:13;6.00;;;3.80;;
6420;SDS011;3243;50.958;7.012;2022-08-11T01:53:00;4.95;;;3.70;;
6420;SDS011;3243;50.958;7.012;2022-08-11T02:03:28;6.40;;;4.07;;
6420;SDS011;3243;50.958;7.012;2022-08-11T02:09:16;5.03;;;4.00;;
6420;SDS011;3243;50.958;7.012;2022-08-11T02:11:46;5.97;;;4.43;;
6420;SDS011;3243;50.958;7.012;2022-08-11T02:14:32;5.95;;;4.57;;
6420;SDS011;3243;50.958;7.012;2022-08-11T02:17:10;5.28;;;4.10;;
6420;SDS011;3243;50.958;7.012;2022-08-11T02:19:53;6.32;;;4.28;;
6420;SDS011;3243;50.958;7.012;2022-08-11T02:22:44;4.72;;;3.80;;
6420;SDS011;3243;50.958;7.012;2022-08-11T02:34:50;10.93;;;4.45;;
6420;SDS011;3243;50.958;7.012;2022-08-11T02:42:32;5.65;;;3.80;;
6420;SDS011;3243;50.958;7.012;2022-08-11T02:45:06;5.82;;;3.88;;
6420;SDS011;3243;50.958;7.012;2022-08-11T02:51:03;5.30;;;3.60;;
6420;SDS011;3243;50.958;7.012;2022-08-11T02:56:29;5.47;;;3.50;;
6420;SDS011;3243;50.958;7.012;2022-08-11T02:59:07;5.13;;;4.00;;
6420;SDS011;3243;50.958;7.012;2022-08-11T03:10:20;5.22;;;3.88;;
6420;SDS011;3243;50.958;7.012;2022-08-11T03:15:42;4.72;;;3.80;;
6420;SDS011;3243;50.958;7.012;2022-08-11T03:18:41;5.35;;;3.90;;
6420;SDS011;3243;50.958;7.012;2022-08-11T03:21:31;5.57;;;3.80;;
6420;SDS011;3243;50.958;7.012;2022-08-11T03:24:24;5.15;;;3.92;;
6420;SDS011;3243;50.958;7.012;2022-08-11T03:29:36;4.70;;;3.83;;
6420;SDS011;3243;50.958;7.012;2022-08-11T03:34:45;5.17;;;3.77;;
6420;SDS011;3243;50.958;7.012;2022-08-11T03:50:47;7.35;;;4.22;;
6420;SDS011;3243;50.958;7.012;2022-08-11T04:10:27;6.78;;;4.03;;
6420;SDS011;3243;50.958;7.012;2022-08-11T04:15:36;6.65;;;4.05;;
6420;SDS011;3243;50.958;7.012;2022-08-11T04:23:57;5.53;;;3.92;;
6420;SDS011;3243;50.958;7.012;2022-08-11T04:27:06;5.22;;;3.78;;
6420;SDS011;3243;50.958;7.012;2022-08-11T04:29:55;6.40;;;4.40;;
6420;SDS011;3243;50.958;7.012;2022-08-11T04:40:33;5.73;;;3.40;;
6420;SDS011;3243;50.958;7.012;2022-08-11T04:49:11;6.93;;;4.05;;
6420;SDS011;3243;50.958;7.012;2022-08-11T04:55:27;5.97;;;3.53;;
6420;SDS011;3243;50.958;7.012;2022-08-11T05:12:52;5.47;;;3.87;;
6420;SDS011;3243;50.958;7.012;2022-08-11T05:15:35;8.77;;;4.23;;
6420;SDS011;3243;50.958;7.012;2022-08-11T05:18:22;7.10;;;4.53;;
6420;SDS011;3243;50.958;7.012;2022-08-11T05:21:10;9.38;;;4.50;;
6420;SDS011;3243;50.958;7.012;2022-08-11T05:24:12;6.32;;;4.18;;
6420;SDS011;3243;50.958;7.012;2022-08-11T05:27:13;6.28;;;4.72;;
6420;SDS011;3243;50.958;7.012;2022-08-11T05:30:05;9.07;;;4.57;;
6420;SDS011;3243;50.958;7.012;2022-08-11T05:35:40;8.95;;;4.40;;
6420;SDS011;3243;50.958;7.012;2022-08-11T05:38:28;8.85;;;3.80;;
6420;SDS011;3243;50.958;7.012;2022-08-11T05:41:15;6.75;;;3.85;;
6420;SDS011;3243;50.958;7.012;2022-08-11T05:44:05;8.75;;;3.75;;
6420;SDS011;3243;50.958;7.012;2022-08-11T05:46:51;6.30;;;3.37;;
6420;SDS011;3243;50.958;7.012;2022-08-11T05:49:38;5.63;;;4.03;;
6420;SDS011;3243;50.958;7.012;2022-08-11T05:52:26;5.32;;;3.33;;
6420;SDS011;3243;50.958;7.012;2022-08-11T05:55:20;7.75;;;3.80;;
6420;SDS011;3243;50.958;7.012;2022-08-11T05:58:31;5.05;;;3.70;;
6420;SDS011;3243;50.958;7.012;2022-08-11T06:01:06;5.72;;;3.30;;
6420;SDS011;3243;50.958;7.012;2022-08-11T06:03:34;7.50;;;3.20;;
6420;SDS011;3243;50.958;7.012;2022-08-11T06:06:24;5.32;;;3.22;;
6420;SDS011;3243;50.958;7.012;2022-08-11T06:08:56;6.07;;;3.38;;
6420;SDS011;3243;50.958;7.012;2022-08-11T06:11:23;5.93;;;3.40;;
6420;SDS011;3243;50.958;7.012;2022-08-11T06:14:10;5.80;;;3.35;;
6420;SDS011;3243;50.958;7.012;2022-08-11T06:16:37;4.45;;;3.17;;
6420;SDS011;3243;50.958;7.012;2022-08-11T06:19:07;6.68;;;3.30;;
6420;SDS011;3243;50.958;7.012;2022-08-11T06:21:34;4.97;;;3.47;;
6420;SDS011;3243;50.958;7.012;2022-08-11T06:24:03;4.85;;;3.42;;
6420;SDS011;3243;50.958;7.012;2022-08-11T06:26:37;7.28;;;3.53;;
6420;SDS011;3243;50.958;7.012;2022-08-11T06:29:33;8.07;;;3.35;;
6420;SDS011;3243;50.958;7.012;2022-08-11T06:32:26;11.95;;;3.20;;
6420;SDS011;3243;50.958;7.012;2022-08-11T06:41:00;5.15;;;3.20;;
6420;SDS011;3243;50.958;7.012;2022-08-11T06:46:40;7.03;;;3.50;;
6420;SDS011;3243;50.958;7.012;2022-08-11T06:49:09;9.15;;;3.70;;
6420;SDS011;3243;50.958;7.012;2022-08-11T06:52:00;5.75;;;3.47;;
6420;SDS011;3243;50.958;7.012;2022-08-11T06:54:31;5.18;;;3.50;;
6420;SDS011;3243;50.958;7.012;2022-08-11T06:56:59;5.70;;;3.33;;
6420;SDS011;3243;50.958;7.012;2022-08-11T06:59:55;8.00;;;3.40;;
6420;SDS011;3243;50.958;7.012;2022-08-11T07:02:59;8.02;;;3.17;;
6420;SDS011;3243;50.958;7.012;2022-08-11T07:14:04;3.97;;;3.10;;
6420;SDS011;3243;50.958;7.012;2022-08-11T07:16:51;4.57;;;2.83;;
6420;SDS011;3243;50.958;7.012;2022-08-11T07:19:21;6.25;;;2.90;;
6420;SDS011;3243;50.958;7.012;2022-08-11T07:22:09;5.13;;;2.97;;
6420;SDS011;3243;50.958;7.012;2022-08-11T07:27:45;3.65;;;2.88;;
6420;SDS011;3243;50.958;7.012;2022-08-11T07:30:33;7.40;;;2.90;;
6420;SDS011;3243;50.958;7.012;2022-08-11T07:33:01;4.43;;;3.35;;
6420;SDS011;3243;50.958;7.012;2022-08-11T07:35:30;4.38;;;2.80;;
6420;SDS011;3243;50.958;7.012;2022-08-11T07:38:05;4.00;;;2.95;;
6420;SDS011;3243;50.958;7.012;2022-08-11T07:40:39;4.88;;;3.20;;
6420;SDS011;3243;50.958;7.012;2022-08-11T07:43:08;4.38;;;3.08;;
6420;SDS011;3243;50.958;7.012;2022-08-11T07:45:41;6.45;;;2.60;;
6420;SDS011;3243;50.958;7.012;2022-08-11T07:48:27;6.43;;;2.90;;
6420;SDS011;3243;50.958;7.012;2022-08-11T07:51:18;5.43;;;3.10;;
6420;SDS011;3243;50.958;7.012;2022-08-11T07:54:04;5.95;;;2.90;;
6420;SDS011;3243;50.958;7.012;2022-08-11T07:56:42;4.50;;;2.72;;
6420;SDS011;3243;50.958;7.012;2022-08-11T07:59:21;4.65;;;2.90;;
6420;SDS011;3243;50.958;7.012;2022-08-11T08:02:27;3.70;;;2.50;;
6420;SDS011;3243;50.958;7.012;2022-08-11T08:05:14;2.47;;;2.28;;
6420;SDS011;3243;50.958;7.012;2022-08-11T08:08:01;3.80;;;2.20;;
6420;SDS011;3243;50.958;7.012;2022-08-11T08:10:46;5.57;;;2.70;;
6420;SDS011;3243;50.958;7.012;2022-08-11T08:13:32;4.72;;;2.60;;
6420;SDS011;3243;50.958;7.012;2022-08-11T08:16:19;3.78;;;2.60;;
6420;SDS011;3243;50.958;7.012;2022-08-11T08:19:05;5.97;;;2.60;;
6420;SDS011;3243;50.958;7.012;2022-08-11T08:21:32;5.43;;;2.55;;
6420;SDS011;3243;50.958;7.012;2022-08-11T08:23:59;8.13;;;3.08;;
6420;SDS011;3243;50.958;7.012;2022-08-11T08:26:26;6.97;;;3.00;;
6420;SDS011;3243;50.958;7.012;2022-08-11T08:29:17;4.68;;;2.80;;
6420;SDS011;3243;50.958;7.012;2022-08-11T08:32:05;6.65;;;3.00;;
6420;SDS011;3243;50.958;7.012;2022-08-11T08:34:34;6.05;;;2.65;;
6420;SDS011;3243;50.958;7.012;2022-08-11T08:37:03;6.22;;;2.25;;
6420;SDS011;3243;50.958;7.012;2022-08-11T08:39:52;2.78;;;2.45;;
6420;SDS011;3243;50.958;7.012;2022-08-11T08:42:23;5.15;;;3.05;;
6420;SDS011;3243;50.958;7.012;2022-08-11T08:45:05;3.72;;;2.50;;
6420;SDS011;3243;50.958;7.012;2022-08-11T08:47:37;3.05;;;2.60;;
6420;SDS011;3243;50.958;7.012;2022-08-11T08:50:12;4.15;;;2.80;;
6420;SDS011;3243;50.958;7.012;2022-08-11T08:52:46;3.28;;;2.63;;
6420;SDS011;3243;50.958;7.012;2022-08-11T08:55:17;3.60;;;2.72;;
6420;SDS011;3243;50.958;7.012;2022-08-11T08:57:45;4.97;;;2.70;;
6420;SDS011;3243;50.958;7.012;2022-08-11T09:00:14;6.53;;;2.95;;
6420;SDS011;3243;50.958;7.012;2022-08-11T09:02:48;3.40;;;2.35;;
6420;SDS011;3243;50.958;7.012;2022-08-11T09:05:16;4.05;;;2.65;;
6420;SDS011;3243;50.958;7.012;2022-08-11T09:07:44;3.42;;;2.63;;
6420;SDS011;3243;50.958;7.012;2022-08-11T09:10:12;6.30;;;2.80;;
6420;SDS011;3243;50.958;7.012;2022-08-11T09:12:43;4.82;;;2.50;;
6420;SDS011;3243;50.958;7.012;2022-08-11T09:15:11;4.22;;;2.83;;
6420;SDS011;3243;50.958;7.012;2022-08-11T09:17:46;3.83;;;2.33;;
6420;SDS011;3243;50.958;7.012;2022-08-11T09:22:47;3.25;;;2.60;;
6420;SDS011;3243;50.958;7.012;2022-08-11T09:25:57;2.40;;;2.20;;
6420;SDS011;3243;50.958;7.012;2022-08-11T09:28:44;4.90;;;2.20;;
6420;SDS011;3243;50.958;7.012;2022-08-11T09:31:13;2.63;;;2.40;;
6420;SDS011;3243;50.958;7.012;2022-08-11T09:33:40;3.85;;;2.47;;
6420;SDS011;3243;50.958;7.012;2022-08-11T09:36:09;6.78;;;2.53;;
6420;SDS011;3243;50.958;7.012;2022-08-11T09:38:57;3.28;;;2.38;;
6420;SDS011;3243;50.958;7.012;2022-08-11T09:41:43;6.28;;;3.10;;
6420;SDS011;3243;50.958;7.012;2022-08-11T09:44:28;4.38;;;2.10;;
6420;SDS011;3243;50.958;7.012;2022-08-11T09:47:17;6.05;;;2.30;;
6420;SDS011;3243;50.958;7.012;2022-08-11T09:49:45;3.20;;;2.42;;
6420;SDS011;3243;50.958;7.012;2022-08-11T09:52:14;3.97;;;2.28;;
6420;SDS011;3243;50.958;7.012;2022-08-11T09:54:43;3.05;;;2.10;;
6420;SDS011;3243;50.958;7.012;2022-08-11T09:57:13;7.25;;;2.40;;
6420;SDS011;3243;50.958;7.012;2022-08-11T10:00:03;6.20;;;2.45;;
6420;SDS011;3243;50.958;7.012;2022-08-11T10:02:43;3.50;;;2.40;;
6420;SDS011;3243;50.958;7.012;2022-08-11T10:05:13;7.13;;;2.20;;
6420;SDS011;3243;50.958;7.012;2022-08-11T10:08:00;5.38;;;2.33;;
6420;SDS011;3243;50.958;7.012;2022-08-11T10:10:28;5.03;;;2.20;;
6420;SDS011;3243;50.958;7.012;2022-08-11T10:13:00;6.35;;;2.17;;
6420;SDS011;3243;50.958;7.012;2022-08-11T10:15:52;4.30;;;2.25;;
6420;SDS011;3243;50.958;7.012;2022-08-11T10:18:40;5.55;;;2.38;;
6420;SDS011;3243;50.958;7.012;2022-08-11T10:21:17;3.28;;;2.20;;
6420;SDS011;3243;50.958;7.012;2022-08-11T10:23:49;4.80;;;2.10;;
6420;SDS011;3243;50.958;7.012;2022-08-11T10:26:37;4.32;;;2.30;;
6420;SDS011;3243;50.958;7.012;2022-08-11T10:29:20;7.65;;;2.50;;
6420;SDS011;3243;50.958;7.012;2022-08-11T10:32:18;5.38;;;2.50;;
6420;SDS011;3243;50.958;7.012;2022-08-11T10:35:24;3.63;;;2.60;;
6420;SDS011;3243;50.958;7.012;2022-08-11T10:37:52;4.10;;;2.40;;
6420;SDS011;3243;50.958;7.012;2022-08-11T10:40:34;6.63;;;3.05;;
6420;SDS011;3243;50.958;7.012;2022-08-11T10:43:04;3.20;;;2.92;;
6420;SDS011;3243;50.958;7.012;2022-08-11T10:45:36;3.28;;;2.97;;
6420;SDS011;3243;50.958;7.012;2022-08-11T10:48:30;3.50;;;2.47;;
6420;SDS011;3243;50.958;7.012;2022-08-11T10:51:03;8.65;;;2.30;;
6420;SDS011;3243;50.958;7.012;2022-08-11T10:53:46;5.32;;;2.30;;
6420;SDS011;3243;50.958;7.012;2022-08-11T10:56:38;2.50;;;2.30;;
6420;SDS011;3243;50.958;7.012;2022-08-11T10:59:25;4.65;;;2.20;;
6420;SDS011;3243;50.958;7.012;2022-08-11T11:01:53;3.50;;;2.33;;
6420;SDS011;3243;50.958;7.012;2022-08-11T11:04:26;3.65;;;2.28;;
6420;SDS011;3243;50.958;7.012;2022-08-11T11:10:09;3.78;;;2.50;;
6420;SDS011;3243;50.958;7.012;2022-08-11T11:15:30;3.45;;;2.50;;
6420;SDS011;3243;50.958;7.012;2022-08-11T11:18:20;2.42;;;2.17;;
6420;SDS011;3243;50.958;7.012;2022-08-11T11:20:58;4.93;;;2.60;;
6420;SDS011;3243;50.958;7.012;2022-08-11T11:29:09;2.42;;;2.22;;
6420;SDS011;3243;50.958;7.012;2022-08-11T11:37:17;2.50;;;2.30;;
6420;SDS011;3243;50.958;7.012;2022-08-11T11:39:45;2.85;;;2.30;;
6420;SDS011;3243;50.958;7.012;2022-08-11T11:42:13;4.40;;;2.50;;
6420;SDS011;3243;50.958;7.012;2022-08-11T11:44:42;2.55;;;2.35;;
6420;SDS011;3243;50.958;7.012;2022-08-11T11:47:11;3.33;;;2.40;;
6420;SDS011;3243;50.958;7.012;2022-08-11T11:49:39;3.60;;;2.70;;
6420;SDS011;3243;50.958;7.012;2022-08-11T11:52:15;4.75;;;2.67;;
6420;SDS011;3243;50.958;7.012;2022-08-11T11:54:45;4.72;;;2.17;;
6420;SDS011;3243;50.958;7.012;2022-08-11T11:57:17;4.95;;;2.45;;
6420;SDS011;3243;50.958;7.012;2022-08-11T12:00:04;3.20;;;2.78;;
6420;SDS011;3243;50.958;7.012;2022-08-11T12:03:00;5.40;;;2.72;;
6420;SDS011;3243;50.958;7.012;2022-08-11T12:05:35;3.80;;;2.50;;
6420;SDS011;3243;50.958;7.012;2022-08-11T12:08:02;2.85;;;2.35;;
6420;SDS011;3243;50.958;7.012;2022-08-11T12:10:52;3.92;;;2.45;;
6420;SDS011;3243;50.958;7.012;2022-08-11T12:13:38;3.22;;;2.45;;
6420;SDS011;3243;50.958;7.012;2022-08-11T12:16:10;4.43;;;2.33;;
6420;SDS011;3243;50.958;7.012;2022-08-11T12:18:59;3.40;;;2.30;;
6420;SDS011;3243;50.958;7.012;2022-08-11T12:21:26;3.50;;;2.60;;
6420;SDS011;3243;50.958;7.012;2022-08-11T12:23:55;3.97;;;2.70;;
6420;SDS011;3243;50.958;7.012;2022-08-11T12:26:43;3.97;;;2.42;;
6420;SDS011;3243;50.958;7.012;2022-08-11T12:29:37;4.45;;;2.80;;
6420;SDS011;3243;50.958;7.012;2022-08-11T12:32:09;2.65;;;2.45;;
6420;SDS011;3243;50.958;7.012;2022-08-11T12:34:36;5.03;;;2.30;;
6420;SDS011;3243;50.958;7.012;2022-08-11T12:37:03;4.10;;;2.55;;
6420;SDS011;3243;50.958;7.012;2022-08-11T12:39:41;2.53;;;2.28;;
6420;SDS011;3243;50.958;7.012;2022-08-11T12:42:51;4.93;;;2.50;;
6420;SDS011;3243;50.958;7.012;2022-08-11T12:46:13;2.67;;;2.17;;
6420;SDS011;3243;50.958;7.012;2022-08-11T12:48:54;4.35;;;2.35;;
6420;SDS011;3243;50.958;7.012;2022-08-11T12:51:46;5.32;;;2.50;;
6420;SDS011;3243;50.958;7.012;2022-08-11T12:57:13;3.08;;;2.25;;
6420;SDS011;3243;50.958;7.012;2022-08-11T13:00:05;3.85;;;2.55;;
6420;SDS011;3243;50.958;7.012;2022-08-11T13:02:51;6.28;;;3.00;;
6420;SDS011;3243;50.958;7.012;2022-08-11T13:05:37;4.15;;;2.60;;
6420;SDS011;3243;50.958;7.012;2022-08-11T13:08:10;3.15;;;2.50;;
6420;SDS011;3243;50.958;7.012;2022-08-11T13:10:42;5.75;;;2.90;;
6420;SDS011;3243;50.958;7.012;2022-08-11T13:13:28;2.97;;;2.28;;
6420;SDS011;3243;50.958;7.012;2022-08-11T13:16:16;4.93;;;2.40;;
6420;SDS011;3243;50.958;7.012;2022-08-11T13:18:43;2.55;;;2.35;;
6420;SDS011;3243;50.958;7.012;2022-08-11T13:21:11;6.00;;;2.55;;
6420;SDS011;3243;50.958;7.012;2022-08-11T13:23:46;3.67;;;2.40;;
6420;SDS011;3243;50.958;7.012;2022-08-11T13:26:31;5.28;;;2.58;;
6420;SDS011;3243;50.958;7.012;2022-08-11T13:29:22;2.78;;;2.05;;
6420;SDS011;3243;50.958;7.012;2022-08-11T13:31:51;4.63;;;2.60;;
6420;SDS011;3243;50.958;7.012;2022-08-11T13:34:20;4.30;;;2.40;;
6420;SDS011;3243;50.958;7.012;2022-08-11T13:36:50;2.95;;;2.38;;
6420;SDS011;3243;50.958;7.012;2022-08-11T13:39:19;4.05;;;2.60;;
6420;SDS011;3243;50.958;7.012;2022-08-11T13:41:49;4.72;;;2.70;;
6420;SDS011;3243;50.958;7.012;2022-08-11T13:44:18;7.00;;;2.30;;
6420;SDS011;3243;50.958;7.012;2022-08-11T13:46:51;5.15;;;2.40;;
6420;SDS011;3243;50.958;7.012;2022-08-11T13:49:21;3.45;;;2.20;;
6420;SDS011;3243;50.958;7.012;2022-08-11T13:51:48;4.07;;;2.40;;
6420;SDS011;3243;50.958;7.012;2022-08-11T13:54:16;4.60;;;2.40;;
6420;SDS011;3243;50.958;7.012;2022-08-11T13:56:47;4.10;;;2.60;;
6420;SDS011;3243;50.958;7.012;2022-08-11T13:59:19;3.17;;;2.65;;
6420;SDS011;3243;50.958;7.012;2022-08-11T14:02:00;4.28;;;2.60;;
6420;SDS011;3243;50.958;7.012;2022-08-11T14:07:52;2.83;;;2.33;;
6420;SDS011;3243;50.958;7.012;2022-08-11T14:10:26;4.30;;;2.35;;
6420;SDS011;3243;50.958;7.012;2022-08-11T14:12:59;4.75;;;2.50;;
6420;SDS011;3243;50.958;7.012;2022-08-11T14:15:46;6.57;;;2.70;;
6420;SDS011;3243;50.958;7.012;2022-08-11T14:18:19;3.38;;;2.67;;
6420;SDS011;3243;50.958;7.012;2022-08-11T14:20:49;3.05;;;2.75;;
6420;SDS011;3243;50.958;7.012;2022-08-11T14:23:38;3.00;;;2.70;;
6420;SDS011;3243;50.958;7.012;2022-08-11T14:26:07;7.22;;;2.70;;
6420;SDS011;3243;50.958;7.012;2022-08-11T14:28:55;6.30;;;2.58;;
6420;SDS011;3243;50.958;7.012;2022-08-11T14:31:31;3.53;;;2.58;;
6420;SDS011;3243;50.958;7.012;2022-08-11T14:34:02;2.63;;;2.40;;
6420;SDS011;3243;50.958;7.012;2022-08-11T14:36:38;5.40;;;2.38;;
6420;SDS011;3243;50.958;7.012;2022-08-11T14:39:11;4.13;;;2.60;;
6420;SDS011;3243;50.958;7.012;2022-08-11T14:41:43;2.70;;;2.42;;
6420;SDS011;3243;50.958;7.012;2022-08-11T14:44:39;2.50;;;2.30;;
6420;SDS011;3243;50.958;7.012;2022-08-11T14:47:34;2.67;;;2.42;;
6420;SDS011;3243;50.958;7.012;2022-08-11T14:50:04;3.00;;;2.58;;
6420;SDS011;3243;50.958;7.012;2022-08-11T14:52:38;5.00;;;2.33;;
6420;SDS011;3243;50.958;7.012;2022-08-11T14:55:08;2.90;;;2.60;;
6420;SDS011;3243;50.958;7.012;2022-08-11T14:57:55;2.67;;;2.40;;
6420;SDS011;3243;50.958;7.012;2022-08-11T15:00:23;4.13;;;2.70;;
6420;SDS011;3243;50.958;7.012;2022-08-11T15:02:51;2.95;;;2.63;;
6420;SDS011;3243;50.958;7.012;2022-08-11T15:05:39;4.07;;;2.85;;
6420;SDS011;3243;50.958;7.012;2022-08-11T15:08:23;3.88;;;2.55;;
6420;SDS011;3243;50.958;7.012;2022-08-11T15:11:15;11.23;;;2.50;;
6420;SDS011;3243;50.958;7.012;2022-08-11T15:14:05;3.08;;;2.78;;
6420;SDS011;3243;50.958;7.012;2022-08-11T15:16:35;4.18;;;2.53;;
6420;SDS011;3243;50.958;7.012;2022-08-11T15:19:23;4.65;;;2.95;;
6420;SDS011;3243;50.958;7.012;2022-08-11T15:21:52;3.67;;;2.22;;
6420;SDS011;3243;50.958;7.012;2022-08-11T15:24:37;3.05;;;2.50;;
6420;SDS011;3243;50.958;7.012;2022-08-11T15:27:05;2.45;;;2.13;;
6420;SDS011;3243;50.958;7.012;2022-08-11T15:29:56;4.38;;;2.70;;
6420;SDS011;3243;50.958;7.012;2022-08-11T15:32:58;3.25;;;2.70;;
6420;SDS011;3243;50.958;7.012;2022-08-11T15:35:47;4.10;;;2.50;;
6420;SDS011;3243;50.958;7.012;2022-08-11T15:38:35;4.70;;;2.60;;
6420;SDS011;3243;50.958;7.012;2022-08-11T15:41:07;5.60;;;2.72;;
6420;SDS011;3243;50.958;7.012;2022-08-11T15:43:55;4.47;;;2.40;;
6420;SDS011;3243;50.958;7.012;2022-08-11T15:49:21;2.70;;;2.42;;
6420;SDS011;3243;50.958;7.012;2022-08-11T15:52:15;3.65;;;2.80;;
6420;SDS011;3243;50.958;7.012;2022-08-11T15:54:44;4.05;;;2.35;;
6420;SDS011;3243;50.958;7.012;2022-08-11T15:57:13;4.63;;;2.83;;
6420;SDS011;3243;50.958;7.012;2022-08-11T16:00:05;4.72;;;2.80;;
6420;SDS011;3243;50.958;7.012;2022-08-11T16:02:53;4.82;;;2.58;;
6420;SDS011;3243;50.958;7.012;2022-08-11T16:05:41;3.70;;;2.75;;
6420;SDS011;3243;50.958;7.012;2022-08-11T16:08:12;6.75;;;2.70;;
6420;SDS011;3243;50.958;7.012;2022-08-11T16:10:51;4.20;;;3.17;;
6420;SDS011;3243;50.958;7.012;2022-08-11T16:13:22;5.50;;;2.50;;
6420;SDS011;3243;50.958;7.012;2022-08-11T16:15:51;4.57;;;2.70;;
6420;SDS011;3243;50.958;7.012;2022-08-11T16:18:54;3.00;;;2.60;;
6420;SDS011;3243;50.958;7.012;2022-08-11T16:21:23;4.03;;;2.70;;
6420;SDS011;3243;50.958;7.012;2022-08-11T16:24:02;4.50;;;2.75;;
6420;SDS011;3243;50.958;7.012;2022-08-11T16:26:32;3.22;;;2.53;;
6420;SDS011;3243;50.958;7.012;2022-08-11T16:29:23;4.72;;;2.88;;
6420;SDS011;3243;50.958;7.012;2022-08-11T16:31:51;3.45;;;2.80;;
6420;SDS011;3243;50.958;7.012;2022-08-11T16:34:38;3.22;;;2.72;;
6420;SDS011;3243;50.958;7.012;2022-08-11T16:37:24;3.17;;;2.55;;
6420;SDS011;3243;50.958;7.012;2022-08-11T16:40:10;5.15;;;2.25;;
6420;SDS011;3243;50.958;7.012;2022-08-11T16:42:38;3.45;;;2.65;;
6420;SDS011;3243;50.958;7.012;2022-08-11T16:45:36;4.43;;;2.85;;
6420;SDS011;3243;50.958;7.012;2022-08-11T16:48:24;2.45;;;2.15;;
6420;SDS011;3243;50.958;7.012;2022-08-11T16:51:06;4.82;;;2.70;;
6420;SDS011;3243;50.958;7.012;2022-08-11T16:53:35;3.35;;;2.40;;
6420;SDS011;3243;50.958;7.012;2022-08-11T16:59:31;6.50;;;2.83;;
6420;SDS011;3243;50.958;7.012;2022-08-11T17:02:03;4.95;;;2.72;;
6420;SDS011;3243;50.958;7.012;2022-08-11T17:07:31;9.68;;;2.80;;
6420;SDS011;3243;50.958;7.012;2022-08-11T17:10:27;5.20;;;2.83;;
6420;SDS011;3243;50.958;7.012;2022-08-11T17:13:25;3.00;;;2.70;;
6420;SDS011;3243;50.958;7.012;2022-08-11T17:16:02;4.85;;;2.92;;
6420;SDS011;3243;50.958;7.012;2022-08-11T17:21:55;3.88;;;2.88;;
6420;SDS011;3243;50.958;7.012;2022-08-11T17:24:36;4.07;;;2.65;;
6420;SDS011;3243;50.958;7.012;2022-08-11T17:27:07;7.07;;;2.90;;
6420;SDS011;3243;50.958;7.012;2022-08-11T17:29:36;4.35;;;3.22;;
6420;SDS011;3243;50.958;7.012;2022-08-11T17:32:30;3.95;;;2.80;;
6420;SDS011;3243;50.958;7.012;2022-08-11T17:35:27;4.60;;;2.65;;
6420;SDS011;3243;50.958;7.012;2022-08-11T17:38:10;3.97;;;2.58;;
6420;SDS011;3243;50.958;7.012;2022-08-11T17:40:39;4.22;;;2.88;;
6420;SDS011;3243;50.958;7.012;2022-08-11T17:43:29;3.05;;;2.70;;
6420;SDS011;3243;50.958;7.012;2022-08-11T17:46:15;4.32;;;2.83;;
6420;SDS011;3243;50.958;7.012;2022-08-11T17:49:02;3.92;;;2.83;;
6420;SDS011;3243;50.958;7.012;2022-08-11T17:51:33;4.78;;;2.72;;
6420;SDS011;3243;50.958;7.012;2022-08-11T17:54:20;3.70;;;2.63;;
6420;SDS011;3243;50.958;7.012;2022-08-11T17:57:07;3.67;;;2.92;;
6420;SDS011;3243;50.958;7.012;2022-08-11T17:59:53;3.00;;;2.58;;
6420;SDS011;3243;50.958;7.012;2022-08-11T18:02:32;2.78;;;2.58;;
6420;SDS011;3243;50.958;7.012;2022-08-11T18:05:19;6.60;;;2.80;;
6420;SDS011;3243;50.958;7.012;2022-08-11T18:07:49;3.15;;;2.83;;
6420;SDS011;3243;50.958;7.012;2022-08-11T18:10:36;3.72;;;3.03;;
6420;SDS011;3243;50.958;7.012;2022-08-11T18:13:24;3.40;;;3.10;;
6420;SDS011;3243;50.958;7.012;2022-08-11T18:16:12;4.43;;;3.03;;
6420;SDS011;3243;50.958;7.012;2022-08-11T18:18:58;5.55;;;2.80;;
6420;SDS011;3243;50.958;7.012;2022-08-11T18:21:44;2.78;;;2.53;;
6420;SDS011;3243;50.958;7.012;2022-08-11T18:24:50;5.20;;;2.80;;
6420;SDS011;3243;50.958;7.012;2022-08-11T18:27:50;3.35;;;2.72;;
6420;SDS011;3243;50.958;7.012;2022-08-11T18:30:38;3.97;;;2.97;;
6420;SDS011;3243;50.958;7.012;2022-08-11T18:33:32;3.58;;;2.80;;
6420;SDS011;3243;50.958;7.012;2022-08-11T18:36:34;5.85;;;2.90;;
6420;SDS011;3243;50.958;7.012;2022-08-11T18:39:23;4.28;;;2.97;;
6420;SDS011;3243;50.958;7.012;2022-08-11T18:42:22;3.83;;;2.75;;
6420;SDS011;3243;50.958;7.012;2022-08-11T18:45:09;3.55;;;3.08;;
6420;SDS011;3243;50.958;7.012;2022-08-11T18:48:12;4.53;;;3.00;;
6420;SDS011;3243;50.958;7.012;2022-08-11T18:51:02;4.45;;;3.00;;
6420;SDS011;3243;50.958;7.012;2022-08-11T18:53:59;4.55;;;2.95;;
6420;SDS011;3243;50.958;7.012;2022-08-11T18:56:47;8.48;;;6.57;;
6420;SDS011;3243;50.958;7.012;2022-08-11T18:59:37;10.48;;;9.38;;
6420;SDS011;3243;50.958;7.012;2022-08-11T19:02:25;6.10;;;4.90;;
6420;SDS011;3243;50.958;7.012;2022-08-11T19:05:15;6.10;;;4.45;;
6420;SDS011;3243;50.958;7.012;2022-08-11T19:08:22;4.82;;;3.05;;
6420;SDS011;3243;50.958;7.012;2022-08-11T19:11:12;5.68;;;4.00;;
6420;SDS011;3243;50.958;7.012;2022-08-11T19:13:59;3.90;;;3.25;;
6420;SDS011;3243;50.958;7.012;2022-08-11T19:16:46;5.75;;;3.15;;
6420;SDS011;3243;50.958;7.012;2022-08-11T19:19:33;3.70;;;3.28;;
6420;SDS011;3243;50.958;7.012;2022-08-11T19:22:24;3.22;;;2.92;;
6420;SDS011;3243;50.958;7.012;2022-08-11T19:25:11;6.28;;;3.20;;
6420;SDS011;3243;50.958;7.012;2022-08-11T19:27:59;4.53;;;3.33;;
6420;SDS011;3243;50.958;7.012;2022-08-11T19:30:47;4.63;;;3.53;;
6420;SDS011;3243;50.958;7.012;2022-08-11T19:33:33;7.45;;;3.20;;
6420;SDS011;3243;50.958;7.012;2022-08-11T19:36:35;3.50;;;2.97;;
6420;SDS011;3243;50.958;7.012;2022-08-11T19:39:21;6.13;;;3.00;;
6420;SDS011;3243;50.958;7.012;2022-08-11T19:42:09;3.88;;;2.90;;
6420;SDS011;3243;50.958;7.012;2022-08-11T19:44:55;6.90;;;3.70;;
6420;SDS011;3243;50.958;7.012;2022-08-11T19:47:43;7.05;;;3.38;;
6420;SDS011;3243;50.958;7.012;2022-08-11T19:50:50;4.90;;;3.63;;
6420;SDS011;3243;50.958;7.012;2022-08-11T19:53:37;3.80;;;3.17;;
6420;SDS011;3243;50.958;7.012;2022-08-11T19:56:23;4.97;;;3.00;;
6420;SDS011;3243;50.958;7.012;2022-08-11T19:59:09;4.93;;;3.50;;
6420;SDS011;3243;50.958;7.012;2022-08-11T20:01:55;3.60;;;3.15;;
6420;SDS011;3243;50.958;7.012;2022-08-11T20:04:41;5.05;;;3.10;;
6420;SDS011;3243;50.958;7.012;2022-08-11T20:07:27;4.00;;;3.13;;
6420;SDS011;3243;50.958;7.012;2022-08-11T20:10:16;4.75;;;3.60;;
6420;SDS011;3243;50.958;7.012;2022-08-11T20:13:08;5.50;;;3.60;;
6420;SDS011;3243;50.958;7.012;2022-08-11T20:15:55;6.38;;;3.45;;
6420;SDS011;3243;50.958;7.012;2022-08-11T20:18:43;4.30;;;3.90;;
6420;SDS011;3243;50.958;7.012;2022-08-11T20:21:30;6.32;;;4.32;;
6420;SDS011;3243;50.958;7.012;2022-08-11T20:24:17;5.15;;;4.00;;
6420;SDS011;3243;50.958;7.012;2022-08-11T20:27:03;5.60;;;3.28;;
6420;SDS011;3243;50.958;7.012;2022-08-11T20:29:52;4.05;;;3.75;;
6420;SDS011;3243;50.958;7.012;2022-08-11T20:32:39;5.10;;;4.43;;
6420;SDS011;3243;50.958;7.012;2022-08-11T20:35:26;4.40;;;3.70;;